createdAt,value
2023-02-12T00:02:22.863Z,17.65
2023-02-12T00:04:54.809Z,17.30
2023-02-12T00:07:29.379Z,16.48
2023-02-12T00:10:04.516Z,15.77
2023-02-12T00:12:36.415Z,14.57
2023-02-12T00:15:08.809Z,15.43
2023-02-12T00:17:40.781Z,16.33
2023-02-12T00:20:12.733Z,16.33
2023-02-12T00:22:44.596Z,16.13
2023-02-12T00:25:17.247Z,16.30
2023-02-12T00:27:49.106Z,16.17
2023-02-12T00:30:21.213Z,16.05
2023-02-12T00:32:53.076Z,15.65
2023-02-12T00:35:26.067Z,14.98
2023-02-12T00:37:58.290Z,14.77
2023-02-12T00:40:30.156Z,14.98
2023-02-12T00:43:02.095Z,14.38
2023-02-12T00:45:33.955Z,14.27
2023-02-12T00:48:06.182Z,14.15
2023-02-12T00:50:41.184Z,14.65
2023-02-12T00:53:13.183Z,13.60
2023-02-12T00:55:45.031Z,13.43
2023-02-12T00:58:18.857Z,14.00
2023-02-12T01:00:51.246Z,14.50
2023-02-12T01:03:23.479Z,13.93
2023-02-12T01:05:57.749Z,12.68
2023-02-12T01:08:30.339Z,14.98
2023-02-12T01:11:05.605Z,14.68
2023-02-12T01:13:37.613Z,15.35
2023-02-12T01:16:17.497Z,14.57
2023-02-12T01:18:50.149Z,13.35
2023-02-12T01:21:26.737Z,14.23
2023-02-12T01:24:00.446Z,13.23
2023-02-12T01:26:32.907Z,13.10
2023-02-12T01:29:06.859Z,13.63
2023-02-12T01:31:39.981Z,13.68
2023-02-12T01:34:12.078Z,13.38
2023-02-12T01:36:43.980Z,13.10
2023-02-12T01:39:15.910Z,12.90
2023-02-12T01:41:47.845Z,11.23
2023-02-12T01:44:22.675Z,11.27
2023-02-12T01:47:05.854Z,11.75
2023-02-12T01:49:40.021Z,11.30
2023-02-12T01:52:23.948Z,11.75
2023-02-12T01:55:00.512Z,11.15
2023-02-12T01:57:35.672Z,11.25
2023-02-12T02:00:13.372Z,11.80
2023-02-12T02:02:58.393Z,11.27
2023-02-12T02:05:56.595Z,10.50
2023-02-12T02:08:29.687Z,10.77
2023-02-12T02:11:01.767Z,10.50
2023-02-12T02:13:52.485Z,10.60
2023-02-12T02:16:27.220Z,10.57
2023-02-12T02:19:08.417Z,10.50
2023-02-12T02:22:10.967Z,10.35
2023-02-12T02:25:13.086Z,9.88
2023-02-12T02:27:58.693Z,9.85
2023-02-12T02:30:45.177Z,10.50
2023-02-12T02:33:36.104Z,10.10
2023-02-12T02:36:34.621Z,7.78
2023-02-12T02:39:21.281Z,9.85
2023-02-12T02:42:00.056Z,9.63
2023-02-12T02:44:38.659Z,9.48
2023-02-12T02:47:13.970Z,10.73
2023-02-12T02:50:02.748Z,10.25
2023-02-12T02:52:41.108Z,10.75
2023-02-12T02:55:16.925Z,10.13
2023-02-12T02:58:00.665Z,11.23
2023-02-12T03:00:38.882Z,10.35
2023-02-12T03:03:26.238Z,10.18
2023-02-12T03:06:19.714Z,10.73
2023-02-12T03:09:01.702Z,9.52
2023-02-12T03:11:35.234Z,8.85
2023-02-12T03:14:19.849Z,8.95
2023-02-12T03:16:56.226Z,9.32
2023-02-12T03:19:41.640Z,9.52
2023-02-12T03:22:19.591Z,9.40
2023-02-12T03:25:00.732Z,9.25
2023-02-12T03:27:41.546Z,9.43
2023-02-12T03:30:14.304Z,8.90
2023-02-12T03:33:16.446Z,9.10
2023-02-12T03:36:00.887Z,8.57
2023-02-12T03:38:54.235Z,9.15
2023-02-12T03:41:41.135Z,9.35
2023-02-12T03:44:20.721Z,9.57
2023-02-12T03:47:19.587Z,9.63
2023-02-12T03:50:19.698Z,9.63
2023-02-12T03:52:51.728Z,9.18
2023-02-12T03:55:24.391Z,9.75
2023-02-12T03:58:01.911Z,9.30
2023-02-12T04:00:33.855Z,8.80
2023-02-12T04:03:07.279Z,9.98
2023-02-12T04:05:39.232Z,10.20
2023-02-12T04:08:12.838Z,9.57
2023-02-12T04:10:50.717Z,9.05
2023-02-12T04:13:50.224Z,8.70
2023-02-12T04:17:06.002Z,9.48
2023-02-12T04:20:01.387Z,9.63
2023-02-12T04:22:41.890Z,9.30
2023-02-12T04:25:37.335Z,10.05
2023-02-12T04:28:15.307Z,9.02
2023-02-12T04:30:59.617Z,9.65
2023-02-12T04:33:47.727Z,9.70
2023-02-12T04:36:27.303Z,9.13
2023-02-12T04:39:02.987Z,9.27
2023-02-12T04:41:35.251Z,9.63
2023-02-12T04:44:18.065Z,9.63
2023-02-12T04:46:50.875Z,9.82
2023-02-12T04:49:23.512Z,10.02
2023-02-12T04:51:55.432Z,9.43
2023-02-12T04:54:27.565Z,10.05
2023-02-12T04:56:59.598Z,10.68
2023-02-12T04:59:31.481Z,10.68
2023-02-12T05:02:03.432Z,10.15
2023-02-12T05:04:35.329Z,9.90
2023-02-12T05:07:07.256Z,10.43
2023-02-12T05:09:39.135Z,10.15
2023-02-12T05:12:11.051Z,10.65
2023-02-12T05:14:43.081Z,10.50
2023-02-12T05:17:14.968Z,10.45
2023-02-12T05:19:48.153Z,10.27
2023-02-12T05:22:20.147Z,9.95
2023-02-12T05:24:52.079Z,10.00
2023-02-12T05:27:23.885Z,10.68
2023-02-12T05:29:56.882Z,10.95
2023-02-12T05:32:28.781Z,11.20
2023-02-12T05:35:00.634Z,11.77
2023-02-12T05:37:36.323Z,12.32
2023-02-12T05:40:09.043Z,10.80
2023-02-12T05:42:40.954Z,9.98
2023-02-12T05:45:12.800Z,10.20
2023-02-12T05:47:45.110Z,11.32
2023-02-12T05:50:17.248Z,11.80
2023-02-12T05:52:50.685Z,13.05
2023-02-12T05:55:22.557Z,12.50
2023-02-12T05:57:54.705Z,11.85
2023-02-12T06:00:26.673Z,12.05
2023-02-12T06:02:58.637Z,12.60
2023-02-12T06:05:30.507Z,12.52
2023-02-12T06:08:02.495Z,12.48
2023-02-12T06:10:34.335Z,12.20
2023-02-12T06:13:06.190Z,13.65
2023-02-12T06:15:38.038Z,12.55
2023-02-12T06:18:09.971Z,13.63
2023-02-12T06:20:41.866Z,13.82
2023-02-12T06:23:13.693Z,13.85
2023-02-12T06:25:45.737Z,13.63
2023-02-12T06:28:17.730Z,13.70
2023-02-12T06:30:49.621Z,12.40
2023-02-12T06:33:21.806Z,12.23
2023-02-12T06:35:53.985Z,11.27
2023-02-12T06:38:26.017Z,10.30
2023-02-12T06:41:01.075Z,9.88
2023-02-12T06:43:32.932Z,10.65
2023-02-12T06:46:05.491Z,12.20
2023-02-12T06:48:37.599Z,11.73
2023-02-12T06:51:18.609Z,12.43
2023-02-12T06:53:52.300Z,12.45
2023-02-12T06:56:26.111Z,12.63
2023-02-12T06:59:01.045Z,12.20
2023-02-12T07:01:32.888Z,11.30
2023-02-12T07:04:04.928Z,67.35
2023-02-12T07:06:36.979Z,55.83
2023-02-12T07:09:08.835Z,14.02
2023-02-12T07:11:40.659Z,14.32
2023-02-12T07:14:17.612Z,13.63
2023-02-12T07:16:49.525Z,14.23
2023-02-12T07:19:22.259Z,13.68
2023-02-12T07:21:54.136Z,13.40
2023-02-12T07:24:26.172Z,15.75
2023-02-12T07:26:58.063Z,14.43
2023-02-12T07:29:29.868Z,15.18
2023-02-12T07:32:01.824Z,23.95
2023-02-12T07:34:33.872Z,21.02
2023-02-12T07:37:07.518Z,20.15
2023-02-12T07:39:39.443Z,17.63
2023-02-12T07:42:15.058Z,14.13
2023-02-12T07:44:53.418Z,14.60
2023-02-12T07:47:25.244Z,14.50
2023-02-12T07:49:57.110Z,16.73
2023-02-12T07:52:29.188Z,16.18
2023-02-12T07:55:01.191Z,16.35
2023-02-12T07:57:34.454Z,14.90
2023-02-12T08:00:07.046Z,14.63
2023-02-12T08:02:44.031Z,13.95
2023-02-12T08:05:15.913Z,13.00
2023-02-12T08:07:48.013Z,13.13
2023-02-12T08:10:22.346Z,12.90
2023-02-12T08:12:54.207Z,17.35
2023-02-12T08:15:26.103Z,16.45
2023-02-12T08:17:57.989Z,18.33
2023-02-12T08:20:29.916Z,19.55
2023-02-12T08:23:01.804Z,19.75
2023-02-12T08:25:33.756Z,19.05
2023-02-12T08:28:06.070Z,19.90
2023-02-12T08:30:38.017Z,19.15
2023-02-12T08:33:09.853Z,19.60
2023-02-12T08:35:41.714Z,19.80
2023-02-12T08:38:13.558Z,19.33
2023-02-12T08:40:45.494Z,20.42
2023-02-12T08:43:17.338Z,19.13
2023-02-12T08:45:49.242Z,18.85
2023-02-12T08:48:21.176Z,18.67
2023-02-12T08:50:52.980Z,20.58
2023-02-12T08:53:25.008Z,20.33
2023-02-12T08:55:57.125Z,26.27
2023-02-12T08:58:29.279Z,21.50
2023-02-12T09:01:02.219Z,21.48
2023-02-12T09:03:34.148Z,19.77
2023-02-12T09:06:07.526Z,19.17
2023-02-12T09:08:40.483Z,20.08
2023-02-12T09:11:18.073Z,20.42
2023-02-12T09:13:50.594Z,20.35
2023-02-12T09:16:22.621Z,20.50
2023-02-12T09:18:55.140Z,19.88
2023-02-12T09:21:27.149Z,20.80
2023-02-12T09:23:59.214Z,20.30
2023-02-12T09:26:31.582Z,20.70
2023-02-12T09:29:04.637Z,19.45
2023-02-12T09:31:36.696Z,19.42
2023-02-12T09:34:08.825Z,19.10
2023-02-12T09:36:40.662Z,18.55
2023-02-12T09:39:12.584Z,18.73
2023-02-12T09:42:10.479Z,22.98
2023-02-12T09:45:20.585Z,21.02
2023-02-12T09:48:05.231Z,21.30
2023-02-12T09:50:49.929Z,22.45
2023-02-12T09:53:31.075Z,24.27
2023-02-12T09:56:03.092Z,21.35
2023-02-12T09:58:42.375Z,20.58
2023-02-12T10:01:17.271Z,22.70
2023-02-12T10:03:52.358Z,24.67
2023-02-12T10:06:30.873Z,26.85
2023-02-12T10:09:22.081Z,28.33
2023-02-12T10:12:04.831Z,29.17
2023-02-12T10:15:17.947Z,32.45
2023-02-12T10:18:13.641Z,32.78
2023-02-12T10:20:52.497Z,32.72
2023-02-12T10:23:40.413Z,33.97
2023-02-12T10:26:19.576Z,35.35
2023-02-12T10:28:54.270Z,35.33
2023-02-12T10:31:31.758Z,34.85
2023-02-12T10:34:18.878Z,33.60
2023-02-12T10:36:55.841Z,32.35
2023-02-12T10:39:37.134Z,33.20
2023-02-12T10:42:19.311Z,34.10
2023-02-12T10:44:51.522Z,35.22
2023-02-12T10:47:24.678Z,33.97
2023-02-12T10:49:59.745Z,34.33
2023-02-12T10:53:12.813Z,33.83
2023-02-12T10:55:45.128Z,32.40
2023-02-12T10:58:25.030Z,31.50
2023-02-12T11:01:01.164Z,31.15
2023-02-12T11:03:38.151Z,30.55
2023-02-12T11:06:26.043Z,30.48
2023-02-12T11:08:59.201Z,29.95
2023-02-12T11:11:37.360Z,34.65
2023-02-12T11:14:21.039Z,31.20
2023-02-12T11:16:58.840Z,28.55
2023-02-12T11:19:32.362Z,29.73
2023-02-12T11:22:10.168Z,31.90
2023-02-12T11:24:42.134Z,30.45
2023-02-12T11:27:26.443Z,29.98
2023-02-12T11:30:10.396Z,29.92
2023-02-12T11:32:43.094Z,28.73
2023-02-12T11:35:28.543Z,29.48
2023-02-12T11:38:02.601Z,28.02
2023-02-12T11:40:34.632Z,27.08
2023-02-12T11:43:09.323Z,25.48
2023-02-12T11:45:52.570Z,27.73
2023-02-12T11:48:34.733Z,28.10
2023-02-12T11:51:18.795Z,25.65
2023-02-12T11:53:55.332Z,26.77
2023-02-12T11:56:45.855Z,26.80
2023-02-12T11:59:43.054Z,25.52
2023-02-12T12:02:28.311Z,25.38
2023-02-12T12:05:13.645Z,23.88
2023-02-12T12:07:53.008Z,24.20
2023-02-12T12:10:44.199Z,25.65
2023-02-12T12:13:25.676Z,25.42
2023-02-12T12:16:28.425Z,25.17
2023-02-12T12:19:29.098Z,25.80
2023-02-12T12:22:14.040Z,28.83
2023-02-12T12:24:51.680Z,28.45
2023-02-12T12:28:03.303Z,29.65
2023-02-12T12:33:22.780Z,28.13
2023-02-12T12:36:00.304Z,30.05
2023-02-12T12:38:40.751Z,28.38
2023-02-12T12:42:02.523Z,28.90
2023-02-12T12:47:26.285Z,27.50
2023-02-12T12:50:12.835Z,26.08
2023-02-12T12:53:27.657Z,24.58
2023-02-12T12:56:05.323Z,26.20
2023-02-12T12:59:14.719Z,26.98
2023-02-12T13:02:05.547Z,28.58
2023-02-12T13:05:01.874Z,28.23
2023-02-12T13:07:52.336Z,29.25
2023-02-12T13:10:34.150Z,29.65
2023-02-12T13:13:42.088Z,26.67
2023-02-12T13:16:16.853Z,27.42
2023-02-12T13:19:12.893Z,27.77
2023-02-12T13:22:06.198Z,25.83
2023-02-12T13:24:52.144Z,21.30
2023-02-12T13:27:34.616Z,9.25
2023-02-12T13:30:18.139Z,7.85
2023-02-12T13:33:02.992Z,7.70
2023-02-12T13:35:40.228Z,7.18
2023-02-12T13:38:22.791Z,6.57
2023-02-12T13:40:59.993Z,7.03
2023-02-12T13:43:38.127Z,6.95
2023-02-12T13:46:33.365Z,7.10
2023-02-12T13:49:10.160Z,7.68
2023-02-12T13:51:53.918Z,6.55
2023-02-12T13:54:45.225Z,6.72
2023-02-12T13:57:19.388Z,7.53
2023-02-12T13:59:54.280Z,6.80
2023-02-12T14:02:37.249Z,6.65
2023-02-12T14:05:21.774Z,7.03
2023-02-12T14:07:55.478Z,6.20
2023-02-12T14:10:49.443Z,5.85
2023-02-12T14:13:24.040Z,6.13
2023-02-12T14:15:58.056Z,6.93
2023-02-12T14:18:36.044Z,6.72
2023-02-12T14:21:28.220Z,7.00
2023-02-12T14:24:38.158Z,7.30
2023-02-12T14:27:24.053Z,7.43
2023-02-12T14:30:21.526Z,7.30
2023-02-12T14:33:28.326Z,7.45
2023-02-12T14:39:19.960Z,7.28
2023-02-12T14:41:57.383Z,7.30
2023-02-12T14:44:30.684Z,7.45
2023-02-12T14:47:08.512Z,7.90
2023-02-12T14:49:52.492Z,7.60
2023-02-12T14:52:28.795Z,8.27
2023-02-12T14:55:07.278Z,8.57
2023-02-12T14:57:41.473Z,9.10
2023-02-12T15:00:19.503Z,9.23
2023-02-12T15:02:55.754Z,8.93
2023-02-12T15:05:34.993Z,8.57
2023-02-12T15:08:17.059Z,8.77
2023-02-12T15:11:29.286Z,8.05
2023-02-12T15:14:06.162Z,9.40
2023-02-12T15:17:00.198Z,8.98
2023-02-12T15:19:46.764Z,8.95
2023-02-12T15:22:25.020Z,8.73
2023-02-12T15:25:33.174Z,9.07
2023-02-12T15:28:19.883Z,9.30
2023-02-12T15:30:55.009Z,9.48
2023-02-12T15:33:35.434Z,9.68
2023-02-12T15:36:10.729Z,9.60
2023-02-12T15:38:43.638Z,9.60
2023-02-12T15:41:33.999Z,9.38
2023-02-12T15:44:27.913Z,10.02
2023-02-12T15:47:08.627Z,10.57
2023-02-12T15:49:42.252Z,10.05
2023-02-12T15:52:26.504Z,10.15
2023-02-12T15:54:58.471Z,12.23
2023-02-12T15:57:32.123Z,9.98
2023-02-12T16:00:11.043Z,10.45
2023-02-12T16:02:52.724Z,10.95
2023-02-12T16:05:25.709Z,10.27
2023-02-12T16:07:58.452Z,10.90
2023-02-12T16:10:30.629Z,9.95
2023-02-12T16:13:02.725Z,10.10
2023-02-12T16:15:35.517Z,10.57
2023-02-12T16:18:22.321Z,9.85
2023-02-12T16:21:22.195Z,10.30
2023-02-12T16:23:54.137Z,10.25
2023-02-12T16:26:27.169Z,10.32
2023-02-12T16:28:59.317Z,9.73
2023-02-12T16:31:31.248Z,10.50
2023-02-12T16:34:05.926Z,10.90
2023-02-12T16:36:46.216Z,10.52
2023-02-12T16:39:46.963Z,11.93
2023-02-12T16:42:22.121Z,10.80
2023-02-12T16:44:54.002Z,9.95
2023-02-12T16:47:26.383Z,10.55
2023-02-12T16:50:00.845Z,10.05
2023-02-12T16:52:39.983Z,14.00
2023-02-12T16:55:17.806Z,10.05
2023-02-12T16:57:49.745Z,10.48
2023-02-12T17:00:22.682Z,11.20
2023-02-12T17:02:56.170Z,9.80
2023-02-12T17:05:28.135Z,8.95
2023-02-12T17:08:00.029Z,9.70
2023-02-12T17:10:32.321Z,8.57
2023-02-12T17:13:04.338Z,8.13
2023-02-12T17:15:42.867Z,9.00
2023-02-12T17:18:15.595Z,9.43
2023-02-12T17:21:09.873Z,10.23
2023-02-12T17:23:42.430Z,9.75
2023-02-12T17:26:14.630Z,10.02
2023-02-12T17:28:46.521Z,10.52
2023-02-12T17:31:20.749Z,8.50
2023-02-12T17:33:52.954Z,9.70
2023-02-12T17:36:25.149Z,8.55
2023-02-12T17:38:57.088Z,10.23
2023-02-12T17:41:29.021Z,11.75
2023-02-12T17:44:00.982Z,9.65
2023-02-12T17:46:33.513Z,11.27
2023-02-12T17:49:05.535Z,9.20
2023-02-12T17:51:37.865Z,8.75
2023-02-12T17:54:09.813Z,8.63
2023-02-12T17:56:41.717Z,9.07
2023-02-12T17:59:13.610Z,9.27
2023-02-12T18:01:45.879Z,10.88
2023-02-12T18:04:18.122Z,11.65
2023-02-12T18:06:50.072Z,12.07
2023-02-12T18:09:22.126Z,11.73
2023-02-12T18:11:54.022Z,10.57
2023-02-12T18:14:25.970Z,12.02
2023-02-12T18:16:58.710Z,12.10
2023-02-12T18:19:31.168Z,12.00
2023-02-12T18:22:03.061Z,12.68
2023-02-12T18:24:35.184Z,12.75
2023-02-12T18:27:09.239Z,11.20
2023-02-12T18:29:41.823Z,13.73
2023-02-12T18:32:16.087Z,13.07
2023-02-12T18:34:48.223Z,13.82
2023-02-12T18:37:20.226Z,15.43
2023-02-12T18:39:52.166Z,17.85
2023-02-12T18:42:24.521Z,13.63
2023-02-12T18:44:56.459Z,13.30
2023-02-12T18:47:28.392Z,13.40
2023-02-12T18:50:08.424Z,11.93
2023-02-12T18:52:40.323Z,12.00
2023-02-12T18:55:12.250Z,11.50
2023-02-12T18:57:44.118Z,11.25
2023-02-12T19:00:16.315Z,11.57
2023-02-12T19:02:48.416Z,12.07
2023-02-12T19:05:20.327Z,12.65
2023-02-12T19:07:52.388Z,11.48
2023-02-12T19:10:24.199Z,11.98
2023-02-12T19:12:56.764Z,13.82
2023-02-12T19:15:28.750Z,11.85
2023-02-12T19:18:00.710Z,12.00
2023-02-12T19:20:33.773Z,11.75
2023-02-12T19:23:05.640Z,12.10
2023-02-12T19:25:43.243Z,11.32
2023-02-12T19:28:15.179Z,11.40
2023-02-12T19:30:47.119Z,10.52
2023-02-12T19:33:19.429Z,11.50
2023-02-12T19:35:51.354Z,11.25
2023-02-12T19:38:23.168Z,11.23
2023-02-12T19:41:06.294Z,10.93
2023-02-12T19:43:38.712Z,10.25
2023-02-12T19:46:21.484Z,10.93
2023-02-12T19:48:58.986Z,10.18
2023-02-12T19:51:31.683Z,9.95
2023-02-12T19:54:06.904Z,10.93
2023-02-12T19:56:39.452Z,10.05
2023-02-12T19:59:14.980Z,9.77
2023-02-12T20:01:48.471Z,10.13
2023-02-12T20:04:23.013Z,9.25
2023-02-12T20:06:55.225Z,9.63
2023-02-12T20:09:27.240Z,9.63
2023-02-12T20:11:59.722Z,9.48
2023-02-12T20:14:31.668Z,9.57
2023-02-12T20:17:03.802Z,8.57
2023-02-12T20:19:35.747Z,16.08
2023-02-12T20:22:07.821Z,29.50
2023-02-12T20:24:40.072Z,8.77
2023-02-12T20:27:13.919Z,8.40
2023-02-12T20:29:46.242Z,9.00
2023-02-12T20:32:18.264Z,8.57
2023-02-12T20:34:53.291Z,8.80
2023-02-12T20:37:25.304Z,7.90
2023-02-12T20:39:57.601Z,8.25
2023-02-12T20:42:29.688Z,7.68
2023-02-12T20:45:01.629Z,7.95
2023-02-12T20:47:34.044Z,7.88
2023-02-12T20:50:06.633Z,7.43
2023-02-12T20:52:38.996Z,8.07
2023-02-12T20:55:11.357Z,8.05
2023-02-12T20:57:44.594Z,7.70
2023-02-12T21:00:21.084Z,7.60
2023-02-12T21:02:55.008Z,7.65
2023-02-12T21:05:27.273Z,7.50
2023-02-12T21:08:00.402Z,8.13
2023-02-12T21:10:34.035Z,6.97
2023-02-12T21:13:06.100Z,7.15
2023-02-12T21:15:37.993Z,26.10
2023-02-12T21:18:10.024Z,7.18
2023-02-12T21:20:41.964Z,7.90
2023-02-12T21:23:13.932Z,6.68
2023-02-12T21:25:45.884Z,6.80
2023-02-12T21:28:17.939Z,7.43
2023-02-12T21:30:49.888Z,7.07
2023-02-12T21:33:21.831Z,6.35
2023-02-12T21:35:53.838Z,6.63
2023-02-12T21:38:25.750Z,6.50
2023-02-12T21:40:57.829Z,5.85
2023-02-12T21:43:30.244Z,6.05
2023-02-12T21:46:05.218Z,6.05
2023-02-12T21:48:39.043Z,5.78
2023-02-12T21:51:28.896Z,5.60
2023-02-12T21:54:03.344Z,6.13
2023-02-12T21:56:39.582Z,5.43
2023-02-12T21:59:12.342Z,5.50
2023-02-12T22:01:49.808Z,5.53
2023-02-12T22:04:21.780Z,5.10
2023-02-12T22:06:54.068Z,5.63
2023-02-12T22:09:26.032Z,5.95
2023-02-12T22:11:57.855Z,5.20
2023-02-12T22:14:30.223Z,5.22
2023-02-12T22:17:02.063Z,5.35
2023-02-12T22:19:33.964Z,5.03
2023-02-12T22:22:05.867Z,5.47
2023-02-12T22:24:37.950Z,4.97
2023-02-12T22:27:09.890Z,4.55
2023-02-12T22:29:41.901Z,5.15
2023-02-12T22:32:13.896Z,5.05
2023-02-12T22:34:45.886Z,4.63
2023-02-12T22:37:17.719Z,4.60
2023-02-12T22:39:49.643Z,4.70
2023-02-12T22:42:21.513Z,4.70
2023-02-12T22:44:53.345Z,4.72
2023-02-12T22:47:25.392Z,4.82
2023-02-12T22:49:57.892Z,4.47
2023-02-12T22:52:31.884Z,4.55
2023-02-12T22:55:04.273Z,4.40
2023-02-12T22:57:36.082Z,4.22
2023-02-12T23:00:08.532Z,4.65
2023-02-12T23:02:40.474Z,4.35
2023-02-12T23:05:12.289Z,4.35
2023-02-12T23:07:44.164Z,4.60
2023-02-12T23:10:16.134Z,4.68
2023-02-12T23:12:47.981Z,4.20
2023-02-12T23:15:19.807Z,4.82
2023-02-12T23:17:52.108Z,3.95
2023-02-12T23:20:23.971Z,3.95
2023-02-12T23:22:55.805Z,4.10
2023-02-12T23:25:27.653Z,4.45
2023-02-12T23:27:59.698Z,4.38
2023-02-12T23:30:31.835Z,4.35
2023-02-12T23:33:03.872Z,4.15
2023-02-12T23:35:35.748Z,3.70
2023-02-12T23:38:07.641Z,3.97
2023-02-12T23:40:40.441Z,4.28
2023-02-12T23:43:12.276Z,4.20
2023-02-12T23:45:45.245Z,4.32
2023-02-12T23:48:17.216Z,4.60
2023-02-12T23:50:49.975Z,4.25
2023-02-12T23:53:22.497Z,4.13
2023-02-12T23:55:54.388Z,4.20
2023-02-12T23:58:26.436Z,4.50
